Flight Track Log - Related Links

Times and Time Zones

All times are in EDT time to prevent confusion due to time zone crossing. See the JZA948 flight status page for this flight to view local times or setup timezone preferences in your user account.

Time Position Orientation Groundspeed Altitude Reporting Facility
EDT Latitude Longitude Course Direction KTS MPH feet Rate Location/Type
Mon 02:35:11 PM 43.6333 -79.6167 180° South 160 184 2,000  Level Toronto Center
Mon 02:36:11 PM 43.5833 -79.6167 119° Southeast 180 207 4,000 1,500 Climbing Toronto Center
Mon 02:37:11 PM 43.5500 -79.5333 105° East 210 242 5,000 500 Climbing Toronto Center
Mon 02:38:11 PM 43.5333 -79.4500 77° East 260 299 5,000 650 Level Toronto Center
Mon 02:39:11 PM 43.5500 -79.3500 36° Northeast 260 299 6,300 1,500 Climbing Toronto Center
Mon 02:40:11 PM 43.6167 -79.2833 44° Northeast 270 311 8,000 1,600 Climbing Toronto Center
Mon 02:41:11 PM 43.6667 -79.2167 44° Northeast 280 322 9,500 1,600 Climbing Toronto Center
Mon 02:42:11 PM 43.7167 -79.1500 68° East 290 334 11,200 1,600 Climbing Toronto Center
Mon 02:43:11 PM 43.7500 -79.0333 55° Northeast 290 334 12,700 1,500 Climbing Toronto Center
Mon 02:44:11 PM 43.8000 -78.9333 61° Northeast 290 334 14,200 1,400 Climbing Toronto Center
Mon 02:45:11 PM 43.8333 -78.8500 68° East 290 334 15,500 1,250 Climbing Toronto Center
Mon 02:46:11 PM 43.8667 -78.7333 65° Northeast 300 345 16,700 1,150 Climbing Toronto Center
Mon 02:47:11 PM 43.9000 -78.6333 59° Northeast 300 345 17,800 1,000 Climbing Toronto Center
Mon 02:48:11 PM 43.9500 -78.5167 74° East 310 357 18,700 950 Climbing Toronto Center
Mon 02:49:11 PM 43.9667 -78.4333 59° Northeast 310 357 19,700 1,000 Climbing Toronto Center
Mon 02:50:11 PM 44.0167 -78.3167 55° Northeast 310 357 20,700 1,000 Climbing Toronto Center
Mon 02:51:11 PM 44.0667 -78.2167 68° East 310 357 21,700 950 Climbing Toronto Center
Mon 02:52:11 PM 44.1000 -78.1000 36° Northeast 310 357 22,600 865 Climbing Toronto Center
Mon 02:52:55 PM 44.1333 -78.0667 68° East 310 357 23,200 757 Climbing Montreal Center
Mon 02:53:54 PM 44.1667 -77.9500 68° East 310 357 23,900 600 Climbing Montreal Center
Mon 02:54:55 PM 44.2000 -77.8333 68° East 320 368 24,400 496 Climbing Montreal Center
Mon 02:55:55 PM 44.2333 -77.7167 62° Northeast 320 368 24,900 300 Climbing Montreal Center
Mon 02:56:55 PM 44.2833 -77.5833 79° East 340 391 25,000 50 Climbing Montreal Center
Mon 02:57:55 PM 44.3000 -77.4667 73° East 350 403 25,000  Level Montreal Center
Mon 02:58:55 PM 44.3333 -77.3167 62° Northeast 370 426 25,000  Level Montreal Center
Mon 02:59:55 PM 44.3833 -77.1833 80° East 370 426 25,000  Level Montreal Center
Mon 03:00:55 PM 44.4000 -77.0500 90° East 380 437 25,000  Level Montreal Center
Mon 03:01:55 PM 44.4000 -76.8833 81° East 380 437 25,000  Level Montreal Center
Mon 03:02:55 PM 44.4167 -76.7333 80° East 390 449 25,000  Level Montreal Center
Mon 03:03:55 PM 44.4333 -76.6000 71° East 390 449 25,000  Level Montreal Center
Mon 03:04:55 PM 44.4667 -76.4667 67° East 390 449 25,000  Level Montreal Center
Mon 03:05:55 PM 44.5167 -76.3000 73° East 390 449 25,000  Level Montreal Center
Mon 03:06:55 PM 44.5500 -76.1500 71° East 390 449 25,000  Level Montreal Center
Mon 03:07:55 PM 44.5833 -76.0167 73° East 390 449 25,000  Level Montreal Center
Mon 03:08:55 PM 44.6167 -75.8667 71° East 390 449 25,000  Level Montreal Center
Mon 03:09:55 PM 44.6500 -75.7333 74° East 390 449 25,000  Level Montreal Center
Mon 03:10:55 PM 44.6833 -75.5667 68° East 390 449 25,000  Level Montreal Center
Mon 03:11:55 PM 44.7167 -75.4500 67° East 390 449 25,000  Level Montreal Center
Mon 03:12:55 PM 44.7667 -75.2833 71° East 390 449 25,000  Level Montreal Center
Mon 03:13:55 PM 44.8000 -75.1500 73° East 390 449 25,000  Level Montreal Center
Mon 03:14:55 PM 44.8333 -75.0000 73° East 400 460 25,000  Level Montreal Center
Mon 03:15:55 PM 44.8667 -74.8500 73° East 400 460 25,000  Level Montreal Center
Mon 03:16:55 PM 44.9000 -74.7000 65° Northeast 400 460 25,000  Level Montreal Center
Mon 03:17:55 PM 44.9500 -74.5500 73° East 400 460 25,000  Level Montreal Center
Mon 03:18:55 PM 44.9833 -74.4000 74° East 400 460 25,000  Level Montreal Center
Mon 03:19:55 PM 45.0167 -74.2333 90° East 400 460 25,000  Level Montreal Center
Mon 03:20:55 PM 45.0167 -74.1000 74° East 400 460 25,000  Level Montreal Center
Mon 03:21:55 PM 45.0500 -73.9333 72° East 400 460 25,000  Level Montreal Center
Mon 03:22:55 PM 45.0833 -73.7833 74° East 400 460 25,000  Level Montreal Center
Mon 03:23:55 PM 45.1167 -73.6167 72° East 400 460 25,000  Level Montreal Center
Mon 03:24:55 PM 45.1500 -73.4667 90° East 400 460 25,000  Level Montreal Center
Mon 03:25:55 PM 45.1500 -73.3333 74° East 400 460 25,000  Level Montreal Center
Mon 03:26:55 PM 45.1833 -73.1667 72° East 400 460 25,000  Level Montreal Center
Mon 03:27:55 PM 45.2167 -73.0167 70° East 400 460 25,000  Level Montreal Center
Mon 03:28:55 PM 45.2500 -72.8833 83° East 400 460 25,000  Level Montreal Center
Mon 03:29:55 PM 45.2667 -72.7000 80° East 400 460 25,000  Level Montreal Center
Mon 03:30:55 PM 45.2833 -72.5667 82° East 400 460 25,000  Level Montreal Center
Mon 03:31:55 PM 45.3000 -72.4000 82° East 400 460 25,000  Level Montreal Center
Mon 03:32:55 PM 45.3167 -72.2333 90° East 400 460 25,000  Level Montreal Center
Mon 03:33:55 PM 45.3167 -72.0833 82° East 400 460 25,000  Level Montreal Center
Mon 03:34:55 PM 45.3333 -71.9167 90° East 400 460 25,000  Level Montreal Center
Mon 03:35:55 PM 45.3333 -71.7667 90° East 400 460 25,000  Level Montreal Center
Mon 03:36:55 PM 45.3333 -71.6000 82° East 400 460 25,000  Level Montreal Center
Mon 03:37:55 PM 45.3500 -71.4333 90° East 400 460 25,000  Level Montreal Center
Mon 03:38:55 PM 45.3500 -71.3000 82° East 400 460 25,000  Level Montreal Center
Mon 03:39:55 PM 45.3667 -71.1333 81° East 400 460 25,000  Level Montreal Center
Mon 03:40:55 PM 45.3833 -70.9833 88° East 400 460 25,000  Level Montreal Center
Mon 03:41:26 PM 45.3847 -70.9242 81° East 401 461 25,000  Level Boston Center
Mon 03:42:26 PM 45.4011 -70.7672 83° East 401 461 25,000  Level Boston Center
Mon 03:43:26 PM 45.4156 -70.6069 88° East 406 467 25,000  Level Boston Center
Mon 03:44:26 PM 45.4192 -70.4503 90° East 406 467 25,000  Level Boston Center
Mon 03:45:26 PM 45.4183 -70.2936 89° East 406 467 25,000  Level Boston Center
Mon 03:46:26 PM 45.4194 -70.1339 90° East 401 461 25,000  Level Boston Center
Mon 03:47:26 PM 45.4200 -69.9592 91° East 401 461 25,000  Level Boston Center
Mon 03:48:27 PM 45.4186 -69.7997 90° East 401 461 25,000  Level Boston Center
Mon 03:49:26 PM 45.4192 -69.6428 90° East 401 461 25,000  Level Boston Center
Mon 03:50:26 PM 45.4192 -69.4803 90° East 401 461 25,000  Level Boston Center
Mon 03:51:27 PM 45.4194 -69.3264 90° East 401 461 25,000  Level Boston Center
Mon 03:52:26 PM 45.4192 -69.1667 90° East 401 461 25,000  Level Boston Center
Mon 03:53:27 PM 45.4189 -69.0069 90° East 401 461 25,000  Level Boston Center
Mon 03:54:27 PM 45.4183 -68.8503 92° East 401 461 25,000  Level Boston Center
Mon 03:55:26 PM 45.4153 -68.6936 90° East 401 461 25,000  Level Boston Center
Mon 03:56:26 PM 45.4144 -68.5369 91° East 401 461 25,000  Level Boston Center
Mon 03:57:26 PM 45.4131 -68.3772 92° East 401 461 25,000  Level Boston Center
Mon 03:58:26 PM 45.4094 -68.2208 92° East 401 461 25,000 -100 Level Boston Center
Mon 03:59:26 PM 45.4064 -68.0761 92° East 401 461 24,800 -843 Descending Boston Center
Mon 04:00:27 PM 45.4025 -67.9197 90° East 401 461 23,300 -1,500 Descending Boston Center
Mon 04:01:26 PM 45.4022 -67.7600 92° East 396 456 21,800 -1,513 Descending Boston Center
Mon 04:02:26 PM 45.3981 -67.6064 97° East 396 456 20,300 -1,488 Descending Boston Center
Mon 04:03:27 PM 45.3856 -67.4597 103° East 388 447 18,800 -1,450 Descending Boston Center
Mon 04:04:26 PM 45.3628 -67.3197 104° East 376 433 17,400 -1,513 Descending Boston Center
Mon 04:05:26 PM 45.3375 -67.1742 103° East 370 426 15,800 -1,550 Descending Boston Center
Mon 04:06:26 PM 45.3144 -67.0317 107° East 370 426 14,300 -1,479 Descending Boston Center
Mon 04:07:52 PM 45.2667 -66.8167 101° East 350 403 12,200 -1,438 Descending Moncton Center
Mon 04:08:52 PM 45.2500 -66.7000 101° East 330 380 10,800 -1,250 Descending Moncton Center
Mon 04:09:52 PM 45.2333 -66.5833 112° Southeast 310 357 9,700 -1,150 Descending Moncton Center
Mon 04:10:52 PM 45.2000 -66.4667 103° East 290 334 8,500 -1,150 Descending Moncton Center
Mon 04:11:52 PM 45.1833 -66.3667 103° East 290 334 7,400 -1,100 Descending Moncton Center
Mon 04:12:52 PM 45.1667 -66.2667 90° East 260 299 6,300 -1,000 Descending Moncton Center
Mon 04:13:52 PM 45.1667 -66.1833 103° East 240 276 5,400 -900 Descending Moncton Center
Mon 04:14:52 PM 45.1500 -66.0833 90° East 220 253 4,500 -950 Descending Moncton Center
Mon 04:15:52 PM 45.1500 -66.0167 35° Northeast 220 253 3,500 -1,050 Descending Moncton Center
Mon 04:16:52 PM 45.2000 -65.9667 35° Northeast 200 230 2,400 -1,000 Descending Moncton Center
Mon 04:17:52 PM 45.2333 -65.9333 19° North 170 196 1,500 -800 Descending Moncton Center
Mon 04:18:52 PM 45.2667 -65.9167 47° Northeast 150 173 800 -400 Descending Moncton Center
Mon 04:19:52 PM 45.3000 -65.8667 47° Northeast 140 161 700 -100 Descending Moncton Center

Login

Don't have an account? Register now (free) for customized features, flight alerts, and more!